createdAt,value
2019-06-07T00:00:57.630Z,8.05
2019-06-07T00:02:33.389Z,8.11
2019-06-07T00:04:13.481Z,8.11
2019-06-07T00:05:48.835Z,8.11
2019-06-07T00:07:27.722Z,8.08
2019-06-07T00:09:03.575Z,8.03
2019-06-07T00:10:38.659Z,8.00
2019-06-07T00:12:17.573Z,7.97
2019-06-07T00:13:52.459Z,7.91
2019-06-07T00:15:29.365Z,7.89
2019-06-07T00:17:04.612Z,7.83
2019-06-07T00:18:40.375Z,7.80
2019-06-07T00:20:20.547Z,7.77
2019-06-07T00:22:15.890Z,7.74
2019-06-07T00:23:31.632Z,7.69
2019-06-07T00:25:12.134Z,7.66
2019-06-07T00:26:57.669Z,7.64
2019-06-07T00:28:26.467Z,7.59
2019-06-07T00:30:29.779Z,7.55
2019-06-07T00:31:41.003Z,7.48
2019-06-07T00:33:21.714Z,7.47
2019-06-07T00:34:55.277Z,7.43
2019-06-07T00:36:31.259Z,7.48
2019-06-07T00:38:09.539Z,7.54
2019-06-07T00:39:45.693Z,7.49
2019-06-07T00:41:22.684Z,7.40
2019-06-07T00:42:58.774Z,7.35
2019-06-07T00:44:35.843Z,7.36
2019-06-07T00:46:16.051Z,7.38
2019-06-07T00:47:55.628Z,7.36
2019-06-07T00:49:40.530Z,7.33
2019-06-07T00:51:08.804Z,7.28
2019-06-07T00:54:26.415Z,7.19
2019-06-07T00:56:02.484Z,7.17
2019-06-07T00:57:37.843Z,7.15
2019-06-07T00:59:16.921Z,7.13
2019-06-07T01:00:51.493Z,7.10
2019-06-07T01:02:31.162Z,7.13
2019-06-07T01:04:04.713Z,7.16
2019-06-07T01:05:40.425Z,7.19
2019-06-07T01:07:18.764Z,7.26
2019-06-07T01:08:54.722Z,7.31
2019-06-07T01:10:52.494Z,7.33
2019-06-07T01:12:07.478Z,7.27
2019-06-07T01:13:44.403Z,7.20
2019-06-07T01:15:28.766Z,7.19
2019-06-07T01:17:22.654Z,7.15
2019-06-07T01:18:46.162Z,7.16
2019-06-07T01:20:21.215Z,7.14
2019-06-07T01:21:55.515Z,7.10
2019-06-07T01:24:04.945Z,7.07
2019-06-07T01:25:15.795Z,7.06
2019-06-07T01:26:52.020Z,7.05
2019-06-07T01:28:30.163Z,7.03
2019-06-07T01:30:07.845Z,7.01
2019-06-07T01:31:44.182Z,6.99
2019-06-07T01:33:20.801Z,7.02
2019-06-07T01:34:56.650Z,7.03
2019-06-07T01:36:32.555Z,7.06
2019-06-07T01:38:08.153Z,7.11
2019-06-07T01:39:44.160Z,7.09
2019-06-07T01:41:22.057Z,7.11
2019-06-07T01:42:57.062Z,7.09
2019-06-07T01:44:32.255Z,7.09
2019-06-07T01:46:08.386Z,7.10
2019-06-07T01:47:46.254Z,7.07
2019-06-07T01:49:22.802Z,7.07
2019-06-07T01:50:58.928Z,7.07
2019-06-07T01:52:34.565Z,7.10
2019-06-07T01:54:49.387Z,7.08
2019-06-07T01:55:47.444Z,7.08
2019-06-07T01:57:38.300Z,7.03
2019-06-07T01:59:00.076Z,7.04
2019-06-07T02:00:35.849Z,7.02
2019-06-07T02:02:14.137Z,7.04
2019-06-07T02:03:49.253Z,7.00
2019-06-07T02:05:29.956Z,7.03
2019-06-07T02:07:02.186Z,7.07
2019-06-07T02:08:37.892Z,7.14
2019-06-07T02:10:13.850Z,7.23
2019-06-07T02:11:49.635Z,7.28
2019-06-07T02:13:28.686Z,7.31
2019-06-07T02:15:04.328Z,7.32
2019-06-07T02:16:39.418Z,7.37
2019-06-07T02:18:15.350Z,7.42
2019-06-07T02:19:50.547Z,7.41
2019-06-07T02:21:28.766Z,7.41
2019-06-07T02:23:03.391Z,7.42
2019-06-07T02:24:41.936Z,7.50
2019-06-07T02:26:17.420Z,7.59
2019-06-07T02:28:10.888Z,7.61
2019-06-07T02:29:33.337Z,7.63
2019-06-07T02:31:07.396Z,7.66
2019-06-07T02:32:42.503Z,7.66
2019-06-07T02:34:18.840Z,7.62
2019-06-07T02:35:53.994Z,7.59
2019-06-07T02:37:35.878Z,7.50
2019-06-07T02:39:08.193Z,7.41
2019-06-07T02:40:44.197Z,7.34
2019-06-07T02:42:19.729Z,7.27
2019-06-07T02:43:55.431Z,7.21
2019-06-07T02:45:37.679Z,7.17
2019-06-07T02:47:08.259Z,7.13
2019-06-07T02:48:43.656Z,7.08
2019-06-07T02:50:20.344Z,7.05
2019-06-07T02:51:55.540Z,7.06
2019-06-07T02:53:38.317Z,7.14
2019-06-07T02:55:08.023Z,7.19
2019-06-07T02:56:57.484Z,7.21
2019-06-07T02:58:25.068Z,7.26
2019-06-07T03:00:16.478Z,7.39
2019-06-07T03:01:41.383Z,7.42
2019-06-07T03:03:16.094Z,7.42
2019-06-07T03:04:51.635Z,7.42
2019-06-07T03:06:31.828Z,7.46
2019-06-07T03:08:07.312Z,7.49
2019-06-07T03:09:44.675Z,7.47
2019-06-07T03:11:21.203Z,7.49
2019-06-07T03:13:00.125Z,7.45
2019-06-07T03:14:39.412Z,7.44
2019-06-07T03:16:18.075Z,7.44
2019-06-07T03:18:14.966Z,7.48
2019-06-07T03:19:51.155Z,7.50
2019-06-07T03:21:29.103Z,7.49
2019-06-07T03:23:04.774Z,7.55
2019-06-07T03:24:42.354Z,7.58
2019-06-07T03:26:17.861Z,7.57
2019-06-07T03:27:53.798Z,7.56
2019-06-07T03:29:30.418Z,7.58
2019-06-07T03:31:06.845Z,7.66
2019-06-07T03:32:47.464Z,7.68
2019-06-07T03:34:19.394Z,7.71
2019-06-07T03:35:55.500Z,7.71
2019-06-07T03:37:35.068Z,7.73
2019-06-07T03:39:11.141Z,7.70
2019-06-07T03:40:46.300Z,7.60
2019-06-07T03:42:26.483Z,7.58
2019-06-07T03:44:03.022Z,7.53
2019-06-07T03:45:41.531Z,7.50
2019-06-07T03:47:15.832Z,7.51
2019-06-07T03:48:51.588Z,7.55
2019-06-07T03:50:30.596Z,7.60
2019-06-07T03:52:04.762Z,7.58
2019-06-07T03:53:40.844Z,7.53
2019-06-07T03:55:16.752Z,7.53
2019-06-07T03:56:52.002Z,7.64
2019-06-07T03:58:34.582Z,7.58
2019-06-07T04:00:07.710Z,7.61
2019-06-07T04:01:43.565Z,7.66
2019-06-07T04:03:33.367Z,7.68
2019-06-07T04:04:56.627Z,7.73
2019-06-07T04:06:34.016Z,7.77
2019-06-07T04:08:09.119Z,7.77
2019-06-07T04:09:45.869Z,7.79
2019-06-07T04:11:22.040Z,7.81
2019-06-07T04:13:02.048Z,7.83
2019-06-07T04:14:42.703Z,7.90
2019-06-07T04:16:23.572Z,7.89
2019-06-07T04:18:02.297Z,7.93
2019-06-07T04:19:39.444Z,7.98
2019-06-07T04:21:15.482Z,8.09
2019-06-07T04:22:51.084Z,8.16
2019-06-07T04:24:28.548Z,8.19
2019-06-07T04:26:04.328Z,8.27
2019-06-07T04:27:41.583Z,8.34
2019-06-07T04:29:36.957Z,8.41
2019-06-07T04:30:54.620Z,8.48
2019-06-07T04:32:31.526Z,8.55
2019-06-07T04:34:07.312Z,8.61
2019-06-07T04:35:45.914Z,8.69
2019-06-07T04:37:28.458Z,8.74
2019-06-07T04:39:05.655Z,8.81
2019-06-07T04:40:42.921Z,8.86
2019-06-07T04:42:19.293Z,8.90
2019-06-07T04:43:55.015Z,9.00
2019-06-07T04:45:40.213Z,9.09
2019-06-07T04:47:09.759Z,9.16
2019-06-07T04:48:47.748Z,9.26
2019-06-07T04:50:23.372Z,9.40
2019-06-07T04:52:03.795Z,9.53
2019-06-07T04:53:47.911Z,9.74
2019-06-07T04:55:29.119Z,9.90
2019-06-07T04:57:04.408Z,10.21
2019-06-07T04:58:41.356Z,10.34
2019-06-07T05:01:01.545Z,10.52
2019-06-07T05:02:15.372Z,10.66
2019-06-07T05:03:53.495Z,10.70
2019-06-07T05:05:51.978Z,10.72
2019-06-07T05:07:35.116Z,10.68
2019-06-07T05:09:10.622Z,10.69
2019-06-07T05:10:45.852Z,10.77
2019-06-07T05:12:22.047Z,11.00
2019-06-07T05:13:57.497Z,11.07
2019-06-07T05:15:35.240Z,11.22
2019-06-07T05:17:11.978Z,11.25
2019-06-07T05:18:51.216Z,11.35
2019-06-07T05:20:41.527Z,11.58
2019-06-07T05:22:31.533Z,11.78
2019-06-07T05:24:10.600Z,11.95
2019-06-07T05:25:44.955Z,12.17
2019-06-07T05:27:22.611Z,12.28
2019-06-07T05:28:57.858Z,12.44
2019-06-07T05:31:03.051Z,12.45
2019-06-07T05:32:13.519Z,12.56
2019-06-07T05:33:49.211Z,12.70
2019-06-07T05:35:24.991Z,12.79
2019-06-07T05:37:11.431Z,13.02
2019-06-07T05:38:41.165Z,12.95
2019-06-07T05:40:19.067Z,12.84
2019-06-07T05:41:56.077Z,12.85
2019-06-07T05:43:39.330Z,12.88
2019-06-07T05:45:15.512Z,13.21
2019-06-07T05:46:51.651Z,13.22
2019-06-07T05:48:28.033Z,13.17
2019-06-07T05:50:04.149Z,13.23
2019-06-07T05:51:41.911Z,13.27
2019-06-07T05:53:18.337Z,13.26
2019-06-07T05:54:55.897Z,13.31
2019-06-07T05:56:35.724Z,13.29
2019-06-07T05:58:10.731Z,13.45
2019-06-07T05:59:48.950Z,13.57
2019-06-07T06:01:42.882Z,13.72
2019-06-07T06:03:07.311Z,13.87
2019-06-07T06:04:47.296Z,14.03
2019-06-07T06:06:20.491Z,13.87
2019-06-07T06:07:56.167Z,13.98
2019-06-07T06:09:31.844Z,14.03
2019-06-07T06:11:06.966Z,13.86
2019-06-07T06:12:50.001Z,14.03
2019-06-07T06:14:19.843Z,14.03
2019-06-07T06:16:02.081Z,14.09
2019-06-07T06:17:40.268Z,14.04
2019-06-07T06:19:12.435Z,14.20
2019-06-07T06:21:18.262Z,14.43
2019-06-07T06:22:30.255Z,14.30
2019-06-07T06:24:05.539Z,14.52
2019-06-07T06:25:50.247Z,14.34
2019-06-07T06:27:55.590Z,14.19
2019-06-07T06:28:58.921Z,14.44
2019-06-07T06:30:34.209Z,14.56
2019-06-07T06:32:41.059Z,14.59
2019-06-07T06:33:50.138Z,14.43
2019-06-07T06:35:30.258Z,14.57
2019-06-07T06:37:10.336Z,14.81
2019-06-07T06:38:47.146Z,14.74
2019-06-07T06:40:23.731Z,15.21
2019-06-07T06:42:03.688Z,15.03
2019-06-07T06:43:39.260Z,14.90
2019-06-07T06:45:31.002Z,14.96
2019-06-07T06:47:09.456Z,14.84
2019-06-07T06:48:50.916Z,14.70
2019-06-07T06:50:24.490Z,14.75
2019-06-07T06:52:00.234Z,14.77
2019-06-07T06:53:35.423Z,14.65
2019-06-07T06:55:11.406Z,14.60
2019-06-07T06:56:47.581Z,14.95
2019-06-07T06:58:24.048Z,15.19
2019-06-07T06:59:59.216Z,15.25
2019-06-07T07:01:35.018Z,15.28
2019-06-07T07:04:48.665Z,15.20
2019-06-07T07:06:26.871Z,15.19
2019-06-07T07:08:02.161Z,15.20
2019-06-07T07:09:37.861Z,14.90
2019-06-07T07:11:15.530Z,14.94
2019-06-07T07:12:52.457Z,15.16
2019-06-07T07:14:28.382Z,15.31
2019-06-07T07:16:10.778Z,15.22
2019-06-07T07:18:03.711Z,15.10
2019-06-07T07:19:30.824Z,15.12
2019-06-07T07:21:06.897Z,15.27
2019-06-07T07:22:47.654Z,15.44
2019-06-07T07:24:24.958Z,15.55
2019-06-07T07:26:00.364Z,15.47
2019-06-07T07:27:36.801Z,15.78
2019-06-07T07:29:12.434Z,16.04
2019-06-07T07:30:52.581Z,16.31
2019-06-07T07:32:29.418Z,16.15
2019-06-07T07:34:32.581Z,16.03
2019-06-07T07:36:09.508Z,16.15
2019-06-07T07:37:21.254Z,16.28
2019-06-07T07:39:05.083Z,16.55
2019-06-07T07:42:25.900Z,16.66
2019-06-07T07:44:07.069Z,16.69
2019-06-07T07:45:46.004Z,16.88
2019-06-07T07:47:22.429Z,16.96
2019-06-07T07:49:01.209Z,16.98
2019-06-07T07:50:36.962Z,16.90
2019-06-07T07:52:12.627Z,17.22
2019-06-07T07:53:57.347Z,17.44
2019-06-07T07:55:25.903Z,17.38
2019-06-07T07:57:01.527Z,17.30
2019-06-07T07:58:39.462Z,17.25
2019-06-07T08:00:50.102Z,17.44
2019-06-07T08:01:56.283Z,17.00
2019-06-07T08:03:31.479Z,17.09
2019-06-07T08:05:21.111Z,17.13
2019-06-07T08:06:46.656Z,17.22
2019-06-07T08:08:24.289Z,17.26
2019-06-07T08:10:06.197Z,17.05
2019-06-07T08:11:47.241Z,17.31
2019-06-07T08:13:27.284Z,17.44
2019-06-07T08:15:03.920Z,17.75
2019-06-07T08:16:39.296Z,17.57
2019-06-07T08:18:16.586Z,17.78
2019-06-07T08:19:54.211Z,17.94
2019-06-07T08:21:29.507Z,18.10
2019-06-07T08:23:06.400Z,18.39
2019-06-07T08:24:43.963Z,18.13
2019-06-07T08:26:21.788Z,18.29
2019-06-07T08:27:59.143Z,18.53
2019-06-07T08:29:44.861Z,18.79
2019-06-07T08:31:11.843Z,18.73
2019-06-07T08:32:50.949Z,18.73
2019-06-07T08:34:24.624Z,18.58
2019-06-07T08:36:14.037Z,18.70
2019-06-07T08:38:15.196Z,18.75
2019-06-07T08:39:17.260Z,18.75
2019-06-07T08:40:56.812Z,18.60
2019-06-07T08:42:37.105Z,18.81
2019-06-07T08:44:22.801Z,18.80
2019-06-07T08:45:46.309Z,19.28
2019-06-07T08:47:22.627Z,19.09
2019-06-07T08:49:02.630Z,19.42
2019-06-07T08:50:35.590Z,19.70
2019-06-07T08:52:13.250Z,19.70
2019-06-07T08:54:02.762Z,19.88
2019-06-07T08:55:27.861Z,20.19
2019-06-07T08:57:19.409Z,19.68
2019-06-07T08:58:45.501Z,19.67
2019-06-07T09:02:14.674Z,19.71
2019-06-07T09:03:42.409Z,19.80
2019-06-07T09:05:26.190Z,19.95
2019-06-07T09:07:18.872Z,20.12
2019-06-07T09:08:45.199Z,20.57
2019-06-07T09:10:22.261Z,20.86
2019-06-07T09:12:00.223Z,21.02
2019-06-07T09:13:35.261Z,20.74
2019-06-07T09:15:23.524Z,20.68
2019-06-07T09:16:49.795Z,21.00
2019-06-07T09:18:44.427Z,21.00
2019-06-07T09:20:35.255Z,21.42
2019-06-07T09:21:52.443Z,21.31
2019-06-07T09:23:29.343Z,20.87
2019-06-07T09:25:14.687Z,21.15
2019-06-07T09:26:42.423Z,21.13
2019-06-07T09:28:20.297Z,21.17
2019-06-07T09:30:00.683Z,21.61
2019-06-07T09:31:51.840Z,21.87
2019-06-07T09:33:13.558Z,21.76
2019-06-07T09:35:03.920Z,21.37
2019-06-07T09:36:33.678Z,21.77
2019-06-07T09:38:24.324Z,21.93
2019-06-07T09:40:05.632Z,21.51
2019-06-07T09:41:47.627Z,21.45
2019-06-07T09:43:59.597Z,21.59
2019-06-07T09:45:03.196Z,21.63
2019-06-07T09:46:35.462Z,21.60
2019-06-07T09:48:15.951Z,22.03
2019-06-07T09:49:48.578Z,21.96
2019-06-07T09:51:24.844Z,21.76
2019-06-07T09:53:13.434Z,21.69
2019-06-07T09:55:06.113Z,21.99
2019-06-07T09:56:17.429Z,21.67
2019-06-07T09:58:09.088Z,21.45
2019-06-07T09:59:36.946Z,21.80
2019-06-07T10:01:14.716Z,21.98
2019-06-07T10:02:50.532Z,21.73
2019-06-07T10:04:31.565Z,21.75
2019-06-07T10:06:13.665Z,21.80
2019-06-07T10:10:09.354Z,21.56
2019-06-07T10:11:04.801Z,21.53
2019-06-07T10:12:44.142Z,21.90
2019-06-07T10:14:20.394Z,22.35
2019-06-07T10:15:58.889Z,22.63
2019-06-07T10:17:34.797Z,22.26
2019-06-07T10:19:10.389Z,22.40
2019-06-07T10:20:46.030Z,22.78
2019-06-07T10:22:45.681Z,22.58
2019-06-07T10:24:23.702Z,22.69
2019-06-07T10:26:21.510Z,22.93
2019-06-07T10:27:57.209Z,23.23
2019-06-07T10:29:39.338Z,23.09
2019-06-07T10:31:23.657Z,23.03
2019-06-07T10:33:06.869Z,23.14
2019-06-07T10:34:43.149Z,23.53
2019-06-07T10:36:23.741Z,23.74
2019-06-07T10:38:02.489Z,23.66
2019-06-07T10:39:48.083Z,23.34
2019-06-07T10:41:20.811Z,23.18
2019-06-07T10:42:56.744Z,23.01
2019-06-07T10:44:32.061Z,22.93
2019-06-07T10:46:08.074Z,23.09
2019-06-07T10:47:44.466Z,23.50
2019-06-07T10:49:24.963Z,23.47
2019-06-07T10:51:06.367Z,23.17
2019-06-07T10:52:42.243Z,23.00
2019-06-07T10:54:29.570Z,23.13
2019-06-07T10:55:55.702Z,23.52
2019-06-07T10:57:32.238Z,23.66
2019-06-07T10:59:09.707Z,23.76
2019-06-07T11:00:49.721Z,23.63
2019-06-07T11:02:25.741Z,24.06
2019-06-07T11:04:05.627Z,23.88
2019-06-07T11:05:41.952Z,24.16
2019-06-07T11:07:23.818Z,24.05
2019-06-07T11:09:05.935Z,24.14
2019-06-07T11:10:42.372Z,23.81
2019-06-07T11:12:23.465Z,24.04
2019-06-07T11:14:02.368Z,24.01
2019-06-07T11:15:39.968Z,24.11
2019-06-07T11:17:16.060Z,23.96
2019-06-07T11:18:51.709Z,24.20
2019-06-07T11:20:35.974Z,24.38
2019-06-07T11:22:15.340Z,23.86
2019-06-07T11:23:58.707Z,23.94
2019-06-07T11:25:40.381Z,23.88
2019-06-07T11:27:24.098Z,23.81
2019-06-07T11:29:00.300Z,24.38
2019-06-07T11:30:43.102Z,24.49
2019-06-07T11:32:22.479Z,24.57
2019-06-07T11:33:57.991Z,24.87
2019-06-07T11:35:33.773Z,24.87
2019-06-07T11:37:11.394Z,25.12
2019-06-07T11:39:02.935Z,24.76
2019-06-07T11:40:38.611Z,24.64
2019-06-07T11:42:14.212Z,24.80
2019-06-07T11:43:49.981Z,25.02
2019-06-07T11:45:29.914Z,24.77
2019-06-07T11:47:10.470Z,24.76
2019-06-07T11:48:47.520Z,24.52
2019-06-07T11:50:23.203Z,24.59
2019-06-07T11:51:58.746Z,24.79
2019-06-07T11:53:34.886Z,24.70
2019-06-07T11:55:17.300Z,25.06
2019-06-07T11:56:53.092Z,24.94
2019-06-07T11:58:33.993Z,24.87
2019-06-07T12:00:14.275Z,24.25
2019-06-07T12:01:48.788Z,24.28
2019-06-07T12:03:25.651Z,24.55
2019-06-07T12:05:05.457Z,24.72
2019-06-07T12:06:44.841Z,24.75
2019-06-07T12:08:20.588Z,24.69
2019-06-07T12:10:05.248Z,24.71
2019-06-07T12:11:46.021Z,25.10
2019-06-07T12:13:26.873Z,25.41
2019-06-07T12:15:01.073Z,25.60
2019-06-07T12:16:42.428Z,25.34
2019-06-07T12:18:19.792Z,25.75
2019-06-07T12:19:55.464Z,25.43
2019-06-07T12:21:31.190Z,25.34
2019-06-07T12:23:06.707Z,25.58
2019-06-07T12:24:46.998Z,25.39
2019-06-07T12:26:23.414Z,24.67
2019-06-07T12:28:02.211Z,24.73
2019-06-07T12:29:46.359Z,24.07
2019-06-07T12:31:24.937Z,23.75
2019-06-07T12:33:00.284Z,23.73
2019-06-07T12:34:39.079Z,23.32
2019-06-07T12:36:15.897Z,23.18
2019-06-07T12:37:53.336Z,22.70
2019-06-07T12:39:28.476Z,22.62
2019-06-07T12:41:06.489Z,22.62
2019-06-07T12:42:42.046Z,22.40
2019-06-07T12:44:22.935Z,22.71
2019-06-07T12:45:58.221Z,22.71
2019-06-07T12:47:34.257Z,22.95
2019-06-07T12:49:09.410Z,23.23
2019-06-07T12:50:48.162Z,22.83
2019-06-07T12:52:26.908Z,22.58
2019-06-07T12:54:03.128Z,22.43
2019-06-07T12:55:41.329Z,22.26
2019-06-07T12:57:17.972Z,22.30
2019-06-07T12:58:53.877Z,22.33
2019-06-07T13:00:30.383Z,22.04
2019-06-07T13:02:16.221Z,22.28
2019-06-07T13:03:51.888Z,22.07
2019-06-07T13:05:28.012Z,22.13
2019-06-07T13:07:08.203Z,21.85
2019-06-07T13:08:44.351Z,22.46
2019-06-07T13:10:52.897Z,23.04
2019-06-07T13:12:34.377Z,22.38
2019-06-07T13:14:16.225Z,22.65
2019-06-07T13:15:57.339Z,23.35
2019-06-07T13:17:39.033Z,23.77
2019-06-07T13:19:20.039Z,24.07
2019-06-07T13:20:56.112Z,24.12
2019-06-07T13:22:31.353Z,24.12
2019-06-07T13:24:11.714Z,24.17
2019-06-07T13:25:50.534Z,24.76
2019-06-07T13:27:26.955Z,24.70
2019-06-07T13:29:04.720Z,24.12
2019-06-07T13:30:42.788Z,23.83
2019-06-07T13:32:21.669Z,23.15
2019-06-07T13:34:03.229Z,23.05
2019-06-07T13:35:42.380Z,23.09
2019-06-07T13:37:23.258Z,22.96
2019-06-07T13:39:01.150Z,22.79
2019-06-07T13:40:36.787Z,22.63
2019-06-07T13:42:14.314Z,22.72
2019-06-07T13:43:52.333Z,22.79
2019-06-07T13:45:32.502Z,23.16
2019-06-07T13:47:17.216Z,23.00
2019-06-07T13:48:52.467Z,23.22
2019-06-07T13:50:34.377Z,23.55
2019-06-07T13:52:10.665Z,23.84
2019-06-07T13:53:49.407Z,24.34
2019-06-07T13:55:25.864Z,24.24
2019-06-07T13:57:06.087Z,24.27
2019-06-07T13:58:43.431Z,24.54
2019-06-07T14:00:26.500Z,24.65
2019-06-07T14:02:02.973Z,24.88
2019-06-07T14:03:39.580Z,24.70
2019-06-07T14:05:18.739Z,24.73
2019-06-07T14:06:55.704Z,24.66
2019-06-07T14:08:32.164Z,24.86
2019-06-07T14:10:11.378Z,24.79
2019-06-07T14:11:50.408Z,25.06
2019-06-07T14:13:23.661Z,25.27
2019-06-07T14:14:59.012Z,25.53
2019-06-07T14:16:35.033Z,25.62
2019-06-07T14:18:10.475Z,25.67
2019-06-07T14:19:46.693Z,25.68
2019-06-07T14:21:22.582Z,25.85
2019-06-07T14:23:00.390Z,25.76
2019-06-07T14:24:38.326Z,26.02
2019-06-07T14:26:37.413Z,26.15
2019-06-07T14:28:13.285Z,26.27
2019-06-07T14:29:49.361Z,26.30
2019-06-07T14:31:26.297Z,26.47
2019-06-07T14:33:07.602Z,26.11
2019-06-07T14:34:50.347Z,26.19
2019-06-07T14:36:30.957Z,26.43
2019-06-07T14:38:10.209Z,25.96
2019-06-07T14:39:51.251Z,26.00
2019-06-07T14:41:27.239Z,25.90
2019-06-07T14:43:08.608Z,26.10
2019-06-07T14:44:46.495Z,26.04
2019-06-07T14:46:27.837Z,26.44
2019-06-07T14:48:05.766Z,26.34
2019-06-07T14:49:41.996Z,26.44
2019-06-07T14:51:19.792Z,26.59
2019-06-07T14:52:55.917Z,26.38
2019-06-07T14:54:39.634Z,26.68
2019-06-07T14:56:15.241Z,26.57
2019-06-07T14:57:55.336Z,26.15
2019-06-07T14:59:38.790Z,26.30
2019-06-07T15:01:15.097Z,26.53
2019-06-07T15:03:00.584Z,26.66
2019-06-07T15:04:36.437Z,26.50
2019-06-07T15:06:16.463Z,26.31
2019-06-07T15:07:56.173Z,26.22
2019-06-07T15:09:31.292Z,26.08
2019-06-07T15:11:31.182Z,25.91
2019-06-07T15:13:19.966Z,25.34
2019-06-07T15:15:07.814Z,25.44
2019-06-07T15:16:47.345Z,25.29
2019-06-07T15:18:31.755Z,24.85
2019-06-07T15:20:09.783Z,24.45
2019-06-07T15:21:46.086Z,24.35
2019-06-07T15:23:21.995Z,24.01
2019-06-07T15:24:58.017Z,23.76
2019-06-07T15:26:34.574Z,23.48
2019-06-07T15:28:11.190Z,23.26
2019-06-07T15:29:48.258Z,23.00
2019-06-07T15:31:27.815Z,23.14
2019-06-07T15:33:02.297Z,23.08
2019-06-07T15:34:41.858Z,22.87
2019-06-07T15:36:20.247Z,22.83
2019-06-07T15:37:57.251Z,22.95
2019-06-07T15:39:37.242Z,23.00
2019-06-07T15:41:24.497Z,22.97
2019-06-07T15:43:00.296Z,23.05
2019-06-07T15:44:43.959Z,23.04
2019-06-07T15:46:25.059Z,23.03
2019-06-07T15:48:01.797Z,22.93
2019-06-07T15:49:40.310Z,23.06
2019-06-07T15:51:15.795Z,22.95
2019-06-07T15:52:51.757Z,22.96
2019-06-07T15:54:27.319Z,22.92
2019-06-07T15:56:06.374Z,22.60
2019-06-07T15:57:43.373Z,22.63
2019-06-07T15:59:29.287Z,22.44
2019-06-07T16:01:07.385Z,22.42
2019-06-07T16:02:46.387Z,22.39
2019-06-07T16:04:24.454Z,22.32
2019-06-07T16:06:05.413Z,22.39
2019-06-07T16:07:46.806Z,22.37
2019-06-07T16:09:22.133Z,22.59
2019-06-07T16:11:04.074Z,23.08
2019-06-07T16:12:59.637Z,23.48
2019-06-07T16:14:43.887Z,23.70
2019-06-07T16:16:25.360Z,23.81
2019-06-07T16:18:05.392Z,24.20
2019-06-07T16:19:42.938Z,24.34
2019-06-07T16:21:18.951Z,24.66
2019-06-07T16:22:55.334Z,24.88
2019-06-07T16:24:30.789Z,25.41
2019-06-07T16:26:12.041Z,25.61
2019-06-07T16:27:50.349Z,25.50
2019-06-07T16:29:27.147Z,25.66
2019-06-07T16:31:03.645Z,25.77
2019-06-07T16:32:41.123Z,25.51
2019-06-07T16:34:16.538Z,25.12
2019-06-07T16:35:54.237Z,25.05
2019-06-07T16:37:31.485Z,24.85
2019-06-07T16:39:11.491Z,24.33
2019-06-07T16:40:48.821Z,23.44
2019-06-07T16:42:25.897Z,23.25
2019-06-07T16:44:01.442Z,23.03
2019-06-07T16:45:38.667Z,22.78
2019-06-07T16:47:14.532Z,22.57
2019-06-07T16:48:51.362Z,22.38
2019-06-07T16:50:29.629Z,21.70
2019-06-07T16:52:05.512Z,21.52
2019-06-07T16:53:40.741Z,20.76
2019-06-07T16:55:19.202Z,20.33
2019-06-07T16:56:56.366Z,19.46
2019-06-07T16:58:32.112Z,18.34
2019-06-07T17:00:08.909Z,17.34
2019-06-07T17:01:50.054Z,16.94
2019-06-07T17:03:25.368Z,16.63
2019-06-07T17:05:01.603Z,16.38
2019-06-07T17:06:43.795Z,16.05
2019-06-07T17:08:24.214Z,16.00
2019-06-07T17:10:02.528Z,15.93
2019-06-07T17:11:40.461Z,15.78
2019-06-07T17:13:32.889Z,15.47
2019-06-07T17:15:03.705Z,15.27
2019-06-07T17:16:39.017Z,15.02
2019-06-07T17:18:19.987Z,14.75
2019-06-07T17:19:55.896Z,14.49
2019-06-07T17:21:35.771Z,14.47
2019-06-07T17:23:18.787Z,14.32
2019-06-07T17:24:56.337Z,14.16
2019-06-07T17:26:36.362Z,13.97
2019-06-07T17:28:24.850Z,13.82
2019-06-07T17:30:10.822Z,13.83
2019-06-07T17:31:54.460Z,13.84
2019-06-07T17:33:39.768Z,13.84
2019-06-07T17:35:19.821Z,13.70
2019-06-07T17:36:57.798Z,13.60
2019-06-07T17:38:36.835Z,13.43
2019-06-07T17:40:15.299Z,13.28
2019-06-07T17:42:02.199Z,13.30
2019-06-07T17:43:46.079Z,13.17
2019-06-07T17:45:13.682Z,13.09
2019-06-07T17:46:54.612Z,13.09
2019-06-07T17:48:36.224Z,13.07
2019-06-07T17:50:15.205Z,12.97
2019-06-07T17:51:59.778Z,12.86
2019-06-07T17:53:36.629Z,12.94
2019-06-07T17:55:23.500Z,12.99
2019-06-07T17:57:04.106Z,12.99
2019-06-07T17:58:42.126Z,12.79
2019-06-07T18:00:33.102Z,12.75
2019-06-07T18:02:13.984Z,12.87
2019-06-07T18:03:53.220Z,12.86
2019-06-07T18:05:39.418Z,12.81
2019-06-07T18:07:26.669Z,12.79
2019-06-07T18:11:18.600Z,12.75
2019-06-07T18:12:57.202Z,12.59
2019-06-07T18:14:43.731Z,12.61
2019-06-07T18:16:20.196Z,12.55
2019-06-07T18:17:56.359Z,12.46
2019-06-07T18:19:41.620Z,12.48
2019-06-07T18:21:24.938Z,12.50
2019-06-07T18:23:05.245Z,12.53
2019-06-07T18:24:41.175Z,12.44
2019-06-07T18:26:23.478Z,12.37
2019-06-07T18:28:01.772Z,12.42
2019-06-07T18:29:42.949Z,12.49
2019-06-07T18:31:27.976Z,12.33
2019-06-07T18:33:04.699Z,12.43
2019-06-07T18:34:40.157Z,12.46
2019-06-07T18:36:41.110Z,12.52
2019-06-07T18:38:18.970Z,12.52
2019-06-07T18:40:02.950Z,12.58
2019-06-07T18:41:41.223Z,12.65
2019-06-07T18:43:17.442Z,12.65
2019-06-07T18:44:57.923Z,12.64
2019-06-07T18:46:42.022Z,12.66
2019-06-07T18:48:26.768Z,12.54
2019-06-07T18:50:13.604Z,12.52
2019-06-07T18:52:09.744Z,12.54
2019-06-07T18:53:55.758Z,12.45
2019-06-07T18:55:33.109Z,12.43
2019-06-07T18:57:19.332Z,12.36
2019-06-07T18:59:00.423Z,12.34
2019-06-07T19:00:37.425Z,12.30
2019-06-07T19:02:34.282Z,12.24
2019-06-07T19:04:10.349Z,12.26
2019-06-07T19:06:00.620Z,12.22
2019-06-07T19:07:44.481Z,12.26
2019-06-07T19:09:22.108Z,12.19
2019-06-07T19:11:18.850Z,12.20
2019-06-07T19:13:04.620Z,12.23
2019-06-07T19:14:44.765Z,12.25
2019-06-07T19:16:36.300Z,12.19
2019-06-07T19:18:16.539Z,12.17
2019-06-07T19:19:54.038Z,12.25
2019-06-07T19:21:34.709Z,12.20
2019-06-07T19:26:37.312Z,12.21
2019-06-07T19:27:50.772Z,12.17
2019-06-07T19:29:27.336Z,12.12
2019-06-07T19:31:17.667Z,12.21
2019-06-07T19:33:14.188Z,12.23
2019-06-07T19:34:51.067Z,12.20
2019-06-07T19:36:27.293Z,12.23
2019-06-07T19:38:05.763Z,12.18
2019-06-07T19:39:44.774Z,12.17
2019-06-07T19:41:23.302Z,12.13
2019-06-07T19:43:03.878Z,12.16
2019-06-07T19:44:53.082Z,12.22
2019-06-07T19:46:23.928Z,12.25
2019-06-07T19:48:02.691Z,12.20
2019-06-07T19:49:38.345Z,12.22
2019-06-07T19:51:14.341Z,12.19
2019-06-07T19:52:51.185Z,12.19
2019-06-07T19:54:31.987Z,12.23
2019-06-07T19:56:10.557Z,12.20
2019-06-07T19:57:57.511Z,12.15
2019-06-07T19:59:37.776Z,12.17
2019-06-07T20:01:14.894Z,12.26
2019-06-07T20:02:59.946Z,12.27
2019-06-07T20:04:43.522Z,12.28
2019-06-07T20:06:25.286Z,12.24
2019-06-07T20:08:04.956Z,12.29
2019-06-07T20:09:56.899Z,12.30
2019-06-07T20:11:36.118Z,12.26
2019-06-07T20:13:35.660Z,12.28
2019-06-07T20:15:28.576Z,12.34
2019-06-07T20:17:01.404Z,12.29
2019-06-07T20:18:44.749Z,12.33
2019-06-07T20:20:23.903Z,12.34
2019-06-07T20:22:03.121Z,12.31
2019-06-07T20:23:43.069Z,12.29
2019-06-07T20:25:22.987Z,12.18
2019-06-07T20:27:00.427Z,12.17
2019-06-07T20:28:50.460Z,12.13
2019-06-07T20:30:36.992Z,12.17
2019-06-07T20:32:16.213Z,12.18
2019-06-07T20:36:00.714Z,12.17
2019-06-07T20:37:37.309Z,12.18
2019-06-07T20:39:19.881Z,12.14
2019-06-07T20:41:01.077Z,12.13
2019-06-07T20:42:37.234Z,12.10
2019-06-07T20:44:13.437Z,12.06
2019-06-07T20:45:50.237Z,11.98
2019-06-07T20:47:31.353Z,12.04
2019-06-07T20:49:09.584Z,11.97
2019-06-07T20:50:47.880Z,11.95
2019-06-07T20:52:28.785Z,11.94
2019-06-07T20:54:12.244Z,11.95
2019-06-07T20:55:48.702Z,11.85
2019-06-07T20:57:29.465Z,11.79
2019-06-07T20:59:06.749Z,11.81
2019-06-07T21:00:46.266Z,11.74
2019-06-07T21:02:23.501Z,11.75
2019-06-07T21:04:10.134Z,11.71
2019-06-07T21:05:46.452Z,11.64
2019-06-07T21:07:30.172Z,11.61
2019-06-07T21:09:14.761Z,11.54
2019-06-07T21:10:59.861Z,11.45
2019-06-07T21:12:36.587Z,11.38
2019-06-07T21:14:12.203Z,11.30
2019-06-07T21:15:50.544Z,11.24
2019-06-07T21:17:31.616Z,11.23
2019-06-07T21:19:10.348Z,11.17
2019-06-07T21:20:47.206Z,11.11
2019-06-07T21:22:28.428Z,11.17
2019-06-07T21:24:04.634Z,11.20
2019-06-07T21:25:40.787Z,11.24
2019-06-07T21:27:22.973Z,11.27
2019-06-07T21:29:01.250Z,11.30
2019-06-07T21:30:43.252Z,11.31
2019-06-07T21:32:19.930Z,11.33
2019-06-07T21:34:01.829Z,11.34
2019-06-07T21:35:38.609Z,11.38
2019-06-07T21:37:15.544Z,11.42